sensor_id;sensor_type;location;lat;lon;timestamp;P1;durP1;ratioP1;P2;durP2;ratioP2
16770;SDS011;8503;52.472;13.344;2022-08-01T00:00:43;3.97;;;2.55;;
16770;SDS011;8503;52.472;13.344;2022-08-01T00:02:08;3.42;;;2.55;;
16770;SDS011;8503;52.472;13.344;2022-08-01T00:03:32;3.60;;;2.42;;
16770;SDS011;8503;52.472;13.344;2022-08-01T00:04:55;3.80;;;2.70;;
16770;SDS011;8503;52.472;13.344;2022-08-01T00:06:18;2.85;;;2.33;;
16770;SDS011;8503;52.472;13.344;2022-08-01T00:07:41;3.28;;;2.17;;
16770;SDS011;8503;52.472;13.344;2022-08-01T00:09:05;2.45;;;2.25;;
16770;SDS011;8503;52.472;13.344;2022-08-01T00:10:28;5.88;;;2.75;;
16770;SDS011;8503;52.472;13.344;2022-08-01T00:11:51;4.53;;;2.28;;
16770;SDS011;8503;52.472;13.344;2022-08-01T00:13:20;7.57;;;3.08;;
16770;SDS011;8503;52.472;13.344;2022-08-01T00:14:44;7.43;;;2.65;;
16770;SDS011;8503;52.472;13.344;2022-08-01T00:16:07;2.45;;;2.25;;
16770;SDS011;8503;52.472;13.344;2022-08-01T00:17:31;3.17;;;2.28;;
16770;SDS011;8503;52.472;13.344;2022-08-01T00:18:55;2.90;;;2.58;;
16770;SDS011;8503;52.472;13.344;2022-08-01T00:20:18;5.20;;;2.65;;
16770;SDS011;8503;52.472;13.344;2022-08-01T00:21:43;2.53;;;2.20;;
16770;SDS011;8503;52.472;13.344;2022-08-01T00:23:22;5.13;;;2.50;;
16770;SDS011;8503;52.472;13.344;2022-08-01T00:24:45;3.45;;;2.67;;
16770;SDS011;8503;52.472;13.344;2022-08-01T00:26:08;4.03;;;2.70;;
16770;SDS011;8503;52.472;13.344;2022-08-01T00:27:31;4.38;;;2.70;;
16770;SDS011;8503;52.472;13.344;2022-08-01T00:28:58;3.42;;;3.03;;
16770;SDS011;8503;52.472;13.344;2022-08-01T00:30:21;4.78;;;3.08;;
16770;SDS011;8503;52.472;13.344;2022-08-01T00:31:44;3.50;;;2.65;;
16770;SDS011;8503;52.472;13.344;2022-08-01T00:33:09;3.78;;;2.40;;
16770;SDS011;8503;52.472;13.344;2022-08-01T00:34:34;4.53;;;2.50;;
16770;SDS011;8503;52.472;13.344;2022-08-01T00:35:58;5.85;;;3.20;;
16770;SDS011;8503;52.472;13.344;2022-08-01T00:37:21;7.63;;;2.50;;
16770;SDS011;8503;52.472;13.344;2022-08-01T00:38:44;3.88;;;3.13;;
16770;SDS011;8503;52.472;13.344;2022-08-01T00:40:08;3.40;;;2.40;;
16770;SDS011;8503;52.472;13.344;2022-08-01T00:41:32;3.85;;;2.58;;
16770;SDS011;8503;52.472;13.344;2022-08-01T00:42:56;3.65;;;2.42;;
16770;SDS011;8503;52.472;13.344;2022-08-01T00:44:19;5.47;;;3.00;;
16770;SDS011;8503;52.472;13.344;2022-08-01T00:45:43;3.45;;;2.28;;
16770;SDS011;8503;52.472;13.344;2022-08-01T00:47:06;5.15;;;2.78;;
16770;SDS011;8503;52.472;13.344;2022-08-01T00:48:31;6.05;;;2.90;;
16770;SDS011;8503;52.472;13.344;2022-08-01T00:49:56;3.53;;;2.63;;
16770;SDS011;8503;52.472;13.344;2022-08-01T00:51:20;2.55;;;2.28;;
16770;SDS011;8503;52.472;13.344;2022-08-01T00:52:44;6.05;;;2.95;;
16770;SDS011;8503;52.472;13.344;2022-08-01T00:54:11;3.67;;;2.95;;
16770;SDS011;8503;52.472;13.344;2022-08-01T00:55:37;4.50;;;2.83;;
16770;SDS011;8503;52.472;13.344;2022-08-01T00:57:00;3.13;;;2.78;;
16770;SDS011;8503;52.472;13.344;2022-08-01T00:58:24;4.72;;;3.40;;
16770;SDS011;8503;52.472;13.344;2022-08-01T00:59:50;2.88;;;2.63;;
16770;SDS011;8503;52.472;13.344;2022-08-01T01:01:17;3.60;;;2.78;;
16770;SDS011;8503;52.472;13.344;2022-08-01T01:02:43;4.78;;;2.80;;
16770;SDS011;8503;52.472;13.344;2022-08-01T01:04:10;4.80;;;2.72;;
16770;SDS011;8503;52.472;13.344;2022-08-01T01:05:35;2.83;;;2.25;;
16770;SDS011;8503;52.472;13.344;2022-08-01T01:07:06;4.28;;;2.65;;
16770;SDS011;8503;52.472;13.344;2022-08-01T01:08:34;5.05;;;3.10;;
16770;SDS011;8503;52.472;13.344;2022-08-01T01:10:02;3.75;;;3.35;;
16770;SDS011;8503;52.472;13.344;2022-08-01T01:11:31;5.47;;;2.90;;
16770;SDS011;8503;52.472;13.344;2022-08-01T01:12:59;3.25;;;2.53;;
16770;SDS011;8503;52.472;13.344;2022-08-01T01:14:27;4.30;;;3.20;;
16770;SDS011;8503;52.472;13.344;2022-08-01T01:15:55;4.43;;;3.05;;
16770;SDS011;8503;52.472;13.344;2022-08-01T01:17:21;6.50;;;2.78;;
16770;SDS011;8503;52.472;13.344;2022-08-01T01:19:10;3.58;;;2.83;;
16770;SDS011;8503;52.472;13.344;2022-08-01T01:20:39;4.07;;;2.90;;
16770;SDS011;8503;52.472;13.344;2022-08-01T01:22:18;4.68;;;2.80;;
16770;SDS011;8503;52.472;13.344;2022-08-01T01:23:48;6.35;;;2.88;;
16770;SDS011;8503;52.472;13.344;2022-08-01T01:25:26;3.38;;;2.83;;
16770;SDS011;8503;52.472;13.344;2022-08-01T01:27:01;3.00;;;2.70;;
16770;SDS011;8503;52.472;13.344;2022-08-01T01:28:31;3.20;;;2.88;;
16770;SDS011;8503;52.472;13.344;2022-08-01T01:30:00;5.60;;;3.70;;
16770;SDS011;8503;52.472;13.344;2022-08-01T01:31:25;4.85;;;3.03;;
16770;SDS011;8503;52.472;13.344;2022-08-01T01:32:48;4.95;;;2.95;;
16770;SDS011;8503;52.472;13.344;2022-08-01T01:34:13;6.63;;;3.08;;
16770;SDS011;8503;52.472;13.344;2022-08-01T01:35:41;3.65;;;2.88;;
16770;SDS011;8503;52.472;13.344;2022-08-01T01:37:10;6.15;;;3.10;;
16770;SDS011;8503;52.472;13.344;2022-08-01T01:38:38;4.10;;;2.78;;
16770;SDS011;8503;52.472;13.344;2022-08-01T01:40:04;7.57;;;2.97;;
16770;SDS011;8503;52.472;13.344;2022-08-01T01:41:29;4.35;;;2.83;;
16770;SDS011;8503;52.472;13.344;2022-08-01T01:42:53;3.50;;;2.85;;
16770;SDS011;8503;52.472;13.344;2022-08-01T01:44:19;4.65;;;3.03;;
16770;SDS011;8503;52.472;13.344;2022-08-01T01:45:44;6.07;;;2.88;;
16770;SDS011;8503;52.472;13.344;2022-08-01T01:47:08;2.95;;;2.67;;
16770;SDS011;8503;52.472;13.344;2022-08-01T01:48:32;2.95;;;2.75;;
16770;SDS011;8503;52.472;13.344;2022-08-01T01:49:57;4.60;;;2.72;;
16770;SDS011;8503;52.472;13.344;2022-08-01T01:51:21;4.15;;;2.70;;
16770;SDS011;8503;52.472;13.344;2022-08-01T01:52:45;4.45;;;2.83;;
16770;SDS011;8503;52.472;13.344;2022-08-01T01:54:10;3.20;;;2.90;;
16770;SDS011;8503;52.472;13.344;2022-08-01T01:55:34;3.45;;;2.83;;
16770;SDS011;8503;52.472;13.344;2022-08-01T01:57:10;6.38;;;2.58;;
16770;SDS011;8503;52.472;13.344;2022-08-01T01:58:34;4.35;;;2.80;;
16770;SDS011;8503;52.472;13.344;2022-08-01T01:59:58;3.33;;;2.72;;
16770;SDS011;8503;52.472;13.344;2022-08-01T02:01:24;5.57;;;2.95;;
16770;SDS011;8503;52.472;13.344;2022-08-01T02:03:09;4.72;;;3.15;;
16770;SDS011;8503;52.472;13.344;2022-08-01T02:04:35;3.47;;;2.80;;
16770;SDS011;8503;52.472;13.344;2022-08-01T02:06:00;3.67;;;2.83;;
16770;SDS011;8503;52.472;13.344;2022-08-01T02:07:24;4.32;;;2.92;;
16770;SDS011;8503;52.472;13.344;2022-08-01T02:08:47;3.63;;;2.58;;
16770;SDS011;8503;52.472;13.344;2022-08-01T02:10:11;7.93;;;2.90;;
16770;SDS011;8503;52.472;13.344;2022-08-01T02:11:34;5.90;;;3.22;;
16770;SDS011;8503;52.472;13.344;2022-08-01T02:13:19;4.22;;;3.15;;
16770;SDS011;8503;52.472;13.344;2022-08-01T02:14:42;3.17;;;2.88;;
16770;SDS011;8503;52.472;13.344;2022-08-01T02:16:08;3.50;;;2.78;;
16770;SDS011;8503;52.472;13.344;2022-08-01T02:17:33;4.85;;;3.58;;
16770;SDS011;8503;52.472;13.344;2022-08-01T02:19:02;8.52;;;3.55;;
16770;SDS011;8503;52.472;13.344;2022-08-01T02:20:26;4.35;;;2.75;;
16770;SDS011;8503;52.472;13.344;2022-08-01T02:21:52;4.57;;;3.10;;
16770;SDS011;8503;52.472;13.344;2022-08-01T02:23:18;4.72;;;3.33;;
16770;SDS011;8503;52.472;13.344;2022-08-01T02:24:44;3.92;;;3.33;;
16770;SDS011;8503;52.472;13.344;2022-08-01T02:26:13;3.78;;;3.35;;
16770;SDS011;8503;52.472;13.344;2022-08-01T02:27:40;3.58;;;3.10;;
16770;SDS011;8503;52.472;13.344;2022-08-01T02:29:06;5.93;;;3.33;;
16770;SDS011;8503;52.472;13.344;2022-08-01T02:30:31;4.65;;;3.30;;
16770;SDS011;8503;52.472;13.344;2022-08-01T02:31:57;5.13;;;3.22;;
16770;SDS011;8503;52.472;13.344;2022-08-01T02:33:23;5.97;;;3.42;;
16770;SDS011;8503;52.472;13.344;2022-08-01T02:34:46;4.55;;;3.55;;
16770;SDS011;8503;52.472;13.344;2022-08-01T02:36:10;4.15;;;3.08;;
16770;SDS011;8503;52.472;13.344;2022-08-01T02:37:52;7.20;;;3.78;;
16770;SDS011;8503;52.472;13.344;2022-08-01T02:39:19;3.10;;;2.83;;
16770;SDS011;8503;52.472;13.344;2022-08-01T02:40:45;6.90;;;3.45;;
16770;SDS011;8503;52.472;13.344;2022-08-01T02:42:08;6.18;;;3.15;;
16770;SDS011;8503;52.472;13.344;2022-08-01T02:43:35;4.78;;;3.05;;
16770;SDS011;8503;52.472;13.344;2022-08-01T02:45:00;5.32;;;2.83;;
16770;SDS011;8503;52.472;13.344;2022-08-01T02:46:28;5.82;;;3.50;;
16770;SDS011;8503;52.472;13.344;2022-08-01T02:47:57;6.75;;;3.30;;
16770;SDS011;8503;52.472;13.344;2022-08-01T02:49:23;3.92;;;3.20;;
16770;SDS011;8503;52.472;13.344;2022-08-01T02:50:47;5.00;;;2.92;;
16770;SDS011;8503;52.472;13.344;2022-08-01T02:52:13;6.55;;;2.92;;
16770;SDS011;8503;52.472;13.344;2022-08-01T02:53:38;7.82;;;3.30;;
16770;SDS011;8503;52.472;13.344;2022-08-01T02:55:05;7.82;;;3.75;;
16770;SDS011;8503;52.472;13.344;2022-08-01T02:56:30;5.78;;;2.97;;
16770;SDS011;8503;52.472;13.344;2022-08-01T02:57:56;5.63;;;3.53;;
16770;SDS011;8503;52.472;13.344;2022-08-01T02:59:21;3.97;;;2.95;;
16770;SDS011;8503;52.472;13.344;2022-08-01T03:00:46;6.65;;;3.47;;
16770;SDS011;8503;52.472;13.344;2022-08-01T03:02:10;3.47;;;3.17;;
16770;SDS011;8503;52.472;13.344;2022-08-01T03:03:36;4.55;;;3.20;;
16770;SDS011;8503;52.472;13.344;2022-08-01T03:05:02;4.55;;;3.17;;
16770;SDS011;8503;52.472;13.344;2022-08-01T03:06:26;5.13;;;3.20;;
16770;SDS011;8503;52.472;13.344;2022-08-01T03:07:49;4.75;;;3.20;;
16770;SDS011;8503;52.472;13.344;2022-08-01T03:09:14;4.95;;;3.90;;
16770;SDS011;8503;52.472;13.344;2022-08-01T03:10:39;5.15;;;3.17;;
16770;SDS011;8503;52.472;13.344;2022-08-01T03:12:05;6.05;;;3.28;;
16770;SDS011;8503;52.472;13.344;2022-08-01T03:13:31;4.50;;;3.17;;
16770;SDS011;8503;52.472;13.344;2022-08-01T03:14:55;4.47;;;3.53;;
16770;SDS011;8503;52.472;13.344;2022-08-01T03:16:20;5.05;;;3.25;;
16770;SDS011;8503;52.472;13.344;2022-08-01T03:17:44;4.22;;;3.30;;
16770;SDS011;8503;52.472;13.344;2022-08-01T03:19:09;5.35;;;3.55;;
16770;SDS011;8503;52.472;13.344;2022-08-01T03:20:35;4.15;;;3.15;;
16770;SDS011;8503;52.472;13.344;2022-08-01T03:21:59;4.78;;;3.40;;
16770;SDS011;8503;52.472;13.344;2022-08-01T03:23:24;4.68;;;3.67;;
16770;SDS011;8503;52.472;13.344;2022-08-01T03:24:58;3.60;;;3.30;;
16770;SDS011;8503;52.472;13.344;2022-08-01T03:26:23;3.38;;;2.88;;
16770;SDS011;8503;52.472;13.344;2022-08-01T03:27:50;4.65;;;3.08;;
16770;SDS011;8503;52.472;13.344;2022-08-01T03:29:17;4.43;;;3.30;;
16770;SDS011;8503;52.472;13.344;2022-08-01T03:30:43;6.75;;;3.30;;
16770;SDS011;8503;52.472;13.344;2022-08-01T03:32:07;6.47;;;3.45;;
16770;SDS011;8503;52.472;13.344;2022-08-01T03:33:31;6.90;;;3.33;;
16770;SDS011;8503;52.472;13.344;2022-08-01T03:34:55;3.78;;;2.97;;
16770;SDS011;8503;52.472;13.344;2022-08-01T03:36:45;5.88;;;3.17;;
16770;SDS011;8503;52.472;13.344;2022-08-01T03:38:10;4.78;;;3.17;;
16770;SDS011;8503;52.472;13.344;2022-08-01T03:39:40;3.78;;;3.00;;
16770;SDS011;8503;52.472;13.344;2022-08-01T03:41:20;6.43;;;3.25;;
16770;SDS011;8503;52.472;13.344;2022-08-01T03:42:44;4.00;;;2.97;;
16770;SDS011;8503;52.472;13.344;2022-08-01T03:44:10;5.85;;;3.75;;
16770;SDS011;8503;52.472;13.344;2022-08-01T03:45:36;4.15;;;3.05;;
16770;SDS011;8503;52.472;13.344;2022-08-01T03:47:02;3.45;;;2.97;;
16770;SDS011;8503;52.472;13.344;2022-08-01T03:48:29;3.30;;;3.00;;
16770;SDS011;8503;52.472;13.344;2022-08-01T03:49:57;3.88;;;3.00;;
16770;SDS011;8503;52.472;13.344;2022-08-01T03:51:21;4.20;;;2.72;;
16770;SDS011;8503;52.472;13.344;2022-08-01T03:52:47;5.32;;;3.22;;
16770;SDS011;8503;52.472;13.344;2022-08-01T03:54:14;4.15;;;3.00;;
16770;SDS011;8503;52.472;13.344;2022-08-01T03:55:38;4.07;;;2.67;;
16770;SDS011;8503;52.472;13.344;2022-08-01T03:57:04;7.50;;;3.30;;
16770;SDS011;8503;52.472;13.344;2022-08-01T03:58:40;3.30;;;3.00;;
16770;SDS011;8503;52.472;13.344;2022-08-01T04:00:10;5.95;;;3.30;;
16770;SDS011;8503;52.472;13.344;2022-08-01T04:01:34;4.07;;;2.85;;
16770;SDS011;8503;52.472;13.344;2022-08-01T04:02:59;4.93;;;3.20;;
16770;SDS011;8503;52.472;13.344;2022-08-01T04:04:23;5.72;;;3.25;;
16770;SDS011;8503;52.472;13.344;2022-08-01T04:05:47;4.93;;;2.97;;
16770;SDS011;8503;52.472;13.344;2022-08-01T04:07:21;4.70;;;3.60;;
16770;SDS011;8503;52.472;13.344;2022-08-01T04:08:46;3.30;;;2.80;;
16770;SDS011;8503;52.472;13.344;2022-08-01T04:10:16;5.15;;;3.10;;
16770;SDS011;8503;52.472;13.344;2022-08-01T04:11:40;5.32;;;3.15;;
16770;SDS011;8503;52.472;13.344;2022-08-01T04:13:04;4.80;;;3.22;;
16770;SDS011;8503;52.472;13.344;2022-08-01T04:14:27;4.43;;;3.15;;
16770;SDS011;8503;52.472;13.344;2022-08-01T04:15:51;5.03;;;3.70;;
16770;SDS011;8503;52.472;13.344;2022-08-01T04:17:14;6.47;;;3.72;;
16770;SDS011;8503;52.472;13.344;2022-08-01T04:18:38;7.05;;;4.13;;
16770;SDS011;8503;52.472;13.344;2022-08-01T04:20:02;5.28;;;4.03;;
16770;SDS011;8503;52.472;13.344;2022-08-01T04:21:26;5.82;;;3.83;;
16770;SDS011;8503;52.472;13.344;2022-08-01T04:22:51;5.22;;;4.05;;
16770;SDS011;8503;52.472;13.344;2022-08-01T04:24:17;13.15;;;4.30;;
16770;SDS011;8503;52.472;13.344;2022-08-01T04:25:41;6.15;;;4.22;;
16770;SDS011;8503;52.472;13.344;2022-08-01T04:27:08;8.90;;;4.05;;
16770;SDS011;8503;52.472;13.344;2022-08-01T04:28:34;5.88;;;4.13;;
16770;SDS011;8503;52.472;13.344;2022-08-01T04:29:59;6.10;;;4.15;;
16770;SDS011;8503;52.472;13.344;2022-08-01T04:31:24;6.00;;;4.25;;
16770;SDS011;8503;52.472;13.344;2022-08-01T04:32:49;6.00;;;4.13;;
16770;SDS011;8503;52.472;13.344;2022-08-01T04:34:14;9.00;;;4.07;;
16770;SDS011;8503;52.472;13.344;2022-08-01T04:35:41;5.95;;;4.13;;
16770;SDS011;8503;52.472;13.344;2022-08-01T04:37:24;7.93;;;4.03;;
16770;SDS011;8503;52.472;13.344;2022-08-01T04:38:50;5.85;;;4.40;;
16770;SDS011;8503;52.472;13.344;2022-08-01T04:40:16;9.65;;;4.40;;
16770;SDS011;8503;52.472;13.344;2022-08-01T04:41:41;5.70;;;3.92;;
16770;SDS011;8503;52.472;13.344;2022-08-01T04:43:04;5.72;;;4.13;;
16770;SDS011;8503;52.472;13.344;2022-08-01T04:44:28;4.65;;;3.70;;
16770;SDS011;8503;52.472;13.344;2022-08-01T04:45:53;7.00;;;4.55;;
16770;SDS011;8503;52.472;13.344;2022-08-01T04:47:17;8.48;;;4.18;;
16770;SDS011;8503;52.472;13.344;2022-08-01T04:48:41;7.78;;;4.28;;
16770;SDS011;8503;52.472;13.344;2022-08-01T04:50:06;8.02;;;4.50;;
16770;SDS011;8503;52.472;13.344;2022-08-01T04:51:29;6.60;;;4.70;;
16770;SDS011;8503;52.472;13.344;2022-08-01T04:52:53;6.85;;;5.00;;
16770;SDS011;8503;52.472;13.344;2022-08-01T04:54:17;5.30;;;4.22;;
16770;SDS011;8503;52.472;13.344;2022-08-01T04:55:44;6.47;;;4.53;;
16770;SDS011;8503;52.472;13.344;2022-08-01T04:57:08;8.27;;;4.70;;
16770;SDS011;8503;52.472;13.344;2022-08-01T04:58:31;7.18;;;4.63;;
16770;SDS011;8503;52.472;13.344;2022-08-01T04:59:55;7.25;;;4.55;;
16770;SDS011;8503;52.472;13.344;2022-08-01T05:01:18;7.80;;;4.72;;
16770;SDS011;8503;52.472;13.344;2022-08-01T05:02:41;5.43;;;4.70;;
16770;SDS011;8503;52.472;13.344;2022-08-01T05:04:05;11.15;;;5.15;;
16770;SDS011;8503;52.472;13.344;2022-08-01T05:05:28;15.15;;;5.30;;
16770;SDS011;8503;52.472;13.344;2022-08-01T05:06:53;4.88;;;4.35;;
16770;SDS011;8503;52.472;13.344;2022-08-01T05:08:15;5.35;;;4.30;;
16770;SDS011;8503;52.472;13.344;2022-08-01T05:09:40;5.97;;;4.13;;
16770;SDS011;8503;52.472;13.344;2022-08-01T05:11:08;5.00;;;3.97;;
16770;SDS011;8503;52.472;13.344;2022-08-01T05:12:32;6.50;;;4.68;;
16770;SDS011;8503;52.472;13.344;2022-08-01T05:13:57;6.53;;;4.30;;
16770;SDS011;8503;52.472;13.344;2022-08-01T05:15:19;9.07;;;4.50;;
16770;SDS011;8503;52.472;13.344;2022-08-01T05:16:44;7.53;;;4.50;;
16770;SDS011;8503;52.472;13.344;2022-08-01T05:18:07;6.65;;;4.60;;
16770;SDS011;8503;52.472;13.344;2022-08-01T05:19:31;6.53;;;4.57;;
16770;SDS011;8503;52.472;13.344;2022-08-01T05:20:54;8.80;;;4.93;;
16770;SDS011;8503;52.472;13.344;2022-08-01T05:22:17;7.22;;;4.30;;
16770;SDS011;8503;52.472;13.344;2022-08-01T05:23:41;7.80;;;4.47;;
16770;SDS011;8503;52.472;13.344;2022-08-01T05:25:05;8.05;;;3.90;;
16770;SDS011;8503;52.472;13.344;2022-08-01T05:26:30;6.05;;;4.40;;
16770;SDS011;8503;52.472;13.344;2022-08-01T05:27:56;7.38;;;4.47;;
16770;SDS011;8503;52.472;13.344;2022-08-01T05:29:20;11.85;;;4.63;;
16770;SDS011;8503;52.472;13.344;2022-08-01T05:30:42;6.00;;;4.50;;
16770;SDS011;8503;52.472;13.344;2022-08-01T05:32:06;7.10;;;3.92;;
16770;SDS011;8503;52.472;13.344;2022-08-01T05:33:30;5.85;;;4.45;;
16770;SDS011;8503;52.472;13.344;2022-08-01T05:34:53;7.20;;;4.00;;
16770;SDS011;8503;52.472;13.344;2022-08-01T05:36:16;5.95;;;4.35;;
16770;SDS011;8503;52.472;13.344;2022-08-01T05:37:40;4.60;;;4.07;;
16770;SDS011;8503;52.472;13.344;2022-08-01T05:39:04;4.90;;;3.95;;
16770;SDS011;8503;52.472;13.344;2022-08-01T05:40:27;5.43;;;3.70;;
16770;SDS011;8503;52.472;13.344;2022-08-01T05:41:54;4.70;;;3.63;;
16770;SDS011;8503;52.472;13.344;2022-08-01T05:43:17;6.47;;;3.88;;
16770;SDS011;8503;52.472;13.344;2022-08-01T05:44:47;7.15;;;3.90;;
16770;SDS011;8503;52.472;13.344;2022-08-01T05:46:11;5.72;;;3.90;;
16770;SDS011;8503;52.472;13.344;2022-08-01T05:47:37;4.15;;;3.20;;
16770;SDS011;8503;52.472;13.344;2022-08-01T05:49:03;3.65;;;3.00;;
16770;SDS011;8503;52.472;13.344;2022-08-01T05:50:27;5.45;;;4.00;;
16770;SDS011;8503;52.472;13.344;2022-08-01T05:51:50;5.75;;;3.80;;
16770;SDS011;8503;52.472;13.344;2022-08-01T05:53:14;8.40;;;3.70;;
16770;SDS011;8503;52.472;13.344;2022-08-01T05:54:36;5.43;;;3.92;;
16770;SDS011;8503;52.472;13.344;2022-08-01T05:56:01;3.90;;;3.35;;
16770;SDS011;8503;52.472;13.344;2022-08-01T05:57:25;4.18;;;3.53;;
16770;SDS011;8503;52.472;13.344;2022-08-01T05:58:50;5.28;;;4.45;;
16770;SDS011;8503;52.472;13.344;2022-08-01T06:00:13;5.20;;;3.45;;
16770;SDS011;8503;52.472;13.344;2022-08-01T06:01:37;4.57;;;3.47;;
16770;SDS011;8503;52.472;13.344;2022-08-01T06:03:05;5.05;;;3.58;;
16770;SDS011;8503;52.472;13.344;2022-08-01T06:04:27;4.85;;;4.28;;
16770;SDS011;8503;52.472;13.344;2022-08-01T06:05:51;7.93;;;4.90;;
16770;SDS011;8503;52.472;13.344;2022-08-01T06:07:14;7.70;;;4.13;;
16770;SDS011;8503;52.472;13.344;2022-08-01T06:08:37;6.00;;;4.18;;
16770;SDS011;8503;52.472;13.344;2022-08-01T06:10:00;7.85;;;3.97;;
16770;SDS011;8503;52.472;13.344;2022-08-01T06:11:23;4.43;;;3.72;;
16770;SDS011;8503;52.472;13.344;2022-08-01T06:12:48;4.43;;;3.72;;
16770;SDS011;8503;52.472;13.344;2022-08-01T06:14:13;4.65;;;3.60;;
16770;SDS011;8503;52.472;13.344;2022-08-01T06:15:39;4.30;;;3.67;;
16770;SDS011;8503;52.472;13.344;2022-08-01T06:17:03;4.43;;;3.75;;
16770;SDS011;8503;52.472;13.344;2022-08-01T06:18:26;5.32;;;4.20;;
16770;SDS011;8503;52.472;13.344;2022-08-01T06:19:50;3.67;;;3.28;;
16770;SDS011;8503;52.472;13.344;2022-08-01T06:21:14;5.15;;;4.10;;
16770;SDS011;8503;52.472;13.344;2022-08-01T06:22:37;3.55;;;3.25;;
16770;SDS011;8503;52.472;13.344;2022-08-01T06:24:01;3.35;;;3.05;;
16770;SDS011;8503;52.472;13.344;2022-08-01T06:25:25;4.38;;;3.58;;
16770;SDS011;8503;52.472;13.344;2022-08-01T06:26:48;3.80;;;3.40;;
16770;SDS011;8503;52.472;13.344;2022-08-01T06:28:13;4.40;;;3.63;;
16770;SDS011;8503;52.472;13.344;2022-08-01T06:29:37;4.60;;;4.05;;
16770;SDS011;8503;52.472;13.344;2022-08-01T06:31:11;5.25;;;3.72;;
16770;SDS011;8503;52.472;13.344;2022-08-01T06:32:36;6.82;;;3.80;;
16770;SDS011;8503;52.472;13.344;2022-08-01T06:34:00;6.68;;;3.63;;
16770;SDS011;8503;52.472;13.344;2022-08-01T06:35:23;4.53;;;3.60;;
16770;SDS011;8503;52.472;13.344;2022-08-01T06:36:46;5.30;;;3.58;;
16770;SDS011;8503;52.472;13.344;2022-08-01T06:38:09;4.57;;;3.47;;
16770;SDS011;8503;52.472;13.344;2022-08-01T06:39:33;3.70;;;3.40;;
16770;SDS011;8503;52.472;13.344;2022-08-01T06:40:57;5.70;;;3.58;;
16770;SDS011;8503;52.472;13.344;2022-08-01T06:42:20;4.47;;;3.45;;
16770;SDS011;8503;52.472;13.344;2022-08-01T06:43:48;3.22;;;2.90;;
16770;SDS011;8503;52.472;13.344;2022-08-01T06:45:12;5.05;;;3.22;;
16770;SDS011;8503;52.472;13.344;2022-08-01T06:46:36;4.45;;;3.22;;
16770;SDS011;8503;52.472;13.344;2022-08-01T06:48:02;3.92;;;3.22;;
16770;SDS011;8503;52.472;13.344;2022-08-01T06:49:26;5.63;;;3.47;;
16770;SDS011;8503;52.472;13.344;2022-08-01T06:50:51;3.70;;;3.20;;
16770;SDS011;8503;52.472;13.344;2022-08-01T06:52:29;4.35;;;2.88;;
16770;SDS011;8503;52.472;13.344;2022-08-01T06:53:55;5.50;;;2.72;;
16770;SDS011;8503;52.472;13.344;2022-08-01T06:55:22;2.75;;;2.53;;
16770;SDS011;8503;52.472;13.344;2022-08-01T06:56:45;6.10;;;2.45;;
16770;SDS011;8503;52.472;13.344;2022-08-01T06:58:09;3.30;;;2.95;;
16770;SDS011;8503;52.472;13.344;2022-08-01T06:59:34;8.50;;;3.03;;
16770;SDS011;8503;52.472;13.344;2022-08-01T07:00:57;2.92;;;2.53;;
16770;SDS011;8503;52.472;13.344;2022-08-01T07:02:21;3.75;;;3.05;;
16770;SDS011;8503;52.472;13.344;2022-08-01T07:03:44;4.22;;;2.95;;
16770;SDS011;8503;52.472;13.344;2022-08-01T07:05:15;3.05;;;2.60;;
16770;SDS011;8503;52.472;13.344;2022-08-01T07:06:38;4.30;;;2.80;;
16770;SDS011;8503;52.472;13.344;2022-08-01T07:08:02;6.80;;;3.20;;
16770;SDS011;8503;52.472;13.344;2022-08-01T07:09:26;4.95;;;2.58;;
16770;SDS011;8503;52.472;13.344;2022-08-01T07:10:50;4.63;;;2.45;;
16770;SDS011;8503;52.472;13.344;2022-08-01T07:12:15;7.07;;;2.30;;
16770;SDS011;8503;52.472;13.344;2022-08-01T07:13:39;4.07;;;2.60;;
16770;SDS011;8503;52.472;13.344;2022-08-01T07:15:09;2.75;;;2.00;;
16770;SDS011;8503;52.472;13.344;2022-08-01T07:16:33;6.30;;;2.35;;
16770;SDS011;8503;52.472;13.344;2022-08-01T07:17:57;2.08;;;1.88;;
16770;SDS011;8503;52.472;13.344;2022-08-01T07:19:22;2.53;;;2.22;;
16770;SDS011;8503;52.472;13.344;2022-08-01T07:20:46;3.20;;;1.80;;
16770;SDS011;8503;52.472;13.344;2022-08-01T07:22:13;4.18;;;1.90;;
16770;SDS011;8503;52.472;13.344;2022-08-01T07:23:43;2.80;;;1.85;;
16770;SDS011;8503;52.472;13.344;2022-08-01T07:25:07;3.67;;;2.03;;
16770;SDS011;8503;52.472;13.344;2022-08-01T07:26:31;1.88;;;1.70;;
16770;SDS011;8503;52.472;13.344;2022-08-01T07:27:55;3.88;;;1.60;;
16770;SDS011;8503;52.472;13.344;2022-08-01T07:29:18;2.13;;;1.92;;
16770;SDS011;8503;52.472;13.344;2022-08-01T07:30:43;2.70;;;1.88;;
16770;SDS011;8503;52.472;13.344;2022-08-01T07:32:07;2.35;;;2.00;;
16770;SDS011;8503;52.472;13.344;2022-08-01T07:33:29;2.75;;;1.90;;
16770;SDS011;8503;52.472;13.344;2022-08-01T07:35:09;3.08;;;2.20;;
16770;SDS011;8503;52.472;13.344;2022-08-01T07:36:34;3.72;;;2.05;;
16770;SDS011;8503;52.472;13.344;2022-08-01T07:37:58;2.65;;;1.83;;
16770;SDS011;8503;52.472;13.344;2022-08-01T07:39:22;2.25;;;2.00;;
16770;SDS011;8503;52.472;13.344;2022-08-01T07:40:46;1.85;;;1.73;;
16770;SDS011;8503;52.472;13.344;2022-08-01T07:42:09;2.60;;;1.70;;
16770;SDS011;8503;52.472;13.344;2022-08-01T07:43:33;1.90;;;1.60;;
16770;SDS011;8503;52.472;13.344;2022-08-01T07:44:57;2.65;;;1.90;;
16770;SDS011;8503;52.472;13.344;2022-08-01T07:46:24;1.85;;;1.73;;
16770;SDS011;8503;52.472;13.344;2022-08-01T07:47:47;3.92;;;1.80;;
16770;SDS011;8503;52.472;13.344;2022-08-01T07:49:11;2.15;;;1.98;;
16770;SDS011;8503;52.472;13.344;2022-08-01T07:50:35;2.95;;;1.80;;
16770;SDS011;8503;52.472;13.344;2022-08-01T07:51:58;3.53;;;1.92;;
16770;SDS011;8503;52.472;13.344;2022-08-01T07:53:25;4.20;;;2.35;;
16770;SDS011;8503;52.472;13.344;2022-08-01T07:54:48;2.75;;;1.88;;
16770;SDS011;8503;52.472;13.344;2022-08-01T07:56:12;2.25;;;1.92;;
16770;SDS011;8503;52.472;13.344;2022-08-01T07:57:36;3.70;;;2.83;;
16770;SDS011;8503;52.472;13.344;2022-08-01T07:59:00;2.67;;;2.47;;
16770;SDS011;8503;52.472;13.344;2022-08-01T08:00:26;2.92;;;2.72;;
16770;SDS011;8503;52.472;13.344;2022-08-01T08:01:53;3.00;;;2.53;;
16770;SDS011;8503;52.472;13.344;2022-08-01T08:03:16;3.25;;;2.28;;
16770;SDS011;8503;52.472;13.344;2022-08-01T08:04:40;3.88;;;2.60;;
16770;SDS011;8503;52.472;13.344;2022-08-01T08:06:09;3.65;;;2.60;;
16770;SDS011;8503;52.472;13.344;2022-08-01T08:07:33;5.25;;;3.08;;
16770;SDS011;8503;52.472;13.344;2022-08-01T08:08:56;5.03;;;2.95;;
16770;SDS011;8503;52.472;13.344;2022-08-01T08:10:20;3.85;;;2.92;;
16770;SDS011;8503;52.472;13.344;2022-08-01T08:11:43;4.10;;;3.20;;
16770;SDS011;8503;52.472;13.344;2022-08-01T08:13:08;3.40;;;3.10;;
16770;SDS011;8503;52.472;13.344;2022-08-01T08:14:33;4.10;;;3.25;;
16770;SDS011;8503;52.472;13.344;2022-08-01T08:15:56;3.40;;;3.10;;
16770;SDS011;8503;52.472;13.344;2022-08-01T08:17:22;4.35;;;3.13;;
16770;SDS011;8503;52.472;13.344;2022-08-01T08:18:45;3.72;;;3.20;;
16770;SDS011;8503;52.472;13.344;2022-08-01T08:20:09;3.78;;;3.05;;
16770;SDS011;8503;52.472;13.344;2022-08-01T08:21:36;3.95;;;3.00;;
16770;SDS011;8503;52.472;13.344;2022-08-01T08:23:00;5.00;;;3.42;;
16770;SDS011;8503;52.472;13.344;2022-08-01T08:25:02;4.78;;;3.50;;
16770;SDS011;8503;52.472;13.344;2022-08-01T08:26:28;5.28;;;3.60;;
16770;SDS011;8503;52.472;13.344;2022-08-01T08:27:52;7.93;;;3.58;;
16770;SDS011;8503;52.472;13.344;2022-08-01T08:29:16;5.55;;;3.50;;
16770;SDS011;8503;52.472;13.344;2022-08-01T08:30:39;4.50;;;3.50;;
16770;SDS011;8503;52.472;13.344;2022-08-01T08:32:03;4.90;;;2.83;;
16770;SDS011;8503;52.472;13.344;2022-08-01T08:33:29;6.25;;;3.33;;
16770;SDS011;8503;52.472;13.344;2022-08-01T08:34:52;2.88;;;2.58;;
16770;SDS011;8503;52.472;13.344;2022-08-01T08:36:16;7.40;;;3.00;;